sensor_id;sensor_type;location;lat;lon;timestamp;P1;durP1;ratioP1;P2;durP2;ratioP2
7215;SDS011;3649;48.798;9.798;2023-08-20T00:00:39;8.20;;;7.37;;
7215;SDS011;3649;48.798;9.798;2023-08-20T00:03:12;10.40;;;7.30;;
7215;SDS011;3649;48.798;9.798;2023-08-20T00:05:40;9.00;;;7.57;;
7215;SDS011;3649;48.798;9.798;2023-08-20T00:08:07;12.00;;;8.27;;
7215;SDS011;3649;48.798;9.798;2023-08-20T00:10:34;7.73;;;7.03;;
7215;SDS011;3649;48.798;9.798;2023-08-20T00:13:01;14.43;;;6.83;;
7215;SDS011;3649;48.798;9.798;2023-08-20T00:15:28;11.17;;;8.07;;
7215;SDS011;3649;48.798;9.798;2023-08-20T00:17:56;9.90;;;7.93;;
7215;SDS011;3649;48.798;9.798;2023-08-20T00:20:23;11.73;;;6.77;;
7215;SDS011;3649;48.798;9.798;2023-08-20T00:22:51;8.60;;;6.77;;
7215;SDS011;3649;48.798;9.798;2023-08-20T00:25:18;7.20;;;6.60;;
7215;SDS011;3649;48.798;9.798;2023-08-20T00:27:45;8.83;;;6.90;;
7215;SDS011;3649;48.798;9.798;2023-08-20T00:30:12;9.90;;;7.10;;
7215;SDS011;3649;48.798;9.798;2023-08-20T00:32:40;8.07;;;7.27;;
7215;SDS011;3649;48.798;9.798;2023-08-20T00:35:08;12.57;;;7.27;;
7215;SDS011;3649;48.798;9.798;2023-08-20T00:37:35;10.40;;;7.50;;
7215;SDS011;3649;48.798;9.798;2023-08-20T00:40:02;7.33;;;6.60;;
7215;SDS011;3649;48.798;9.798;2023-08-20T00:42:31;8.77;;;8.07;;
7215;SDS011;3649;48.798;9.798;2023-08-20T00:44:58;9.53;;;7.43;;
7215;SDS011;3649;48.798;9.798;2023-08-20T00:47:25;8.70;;;7.20;;
7215;SDS011;3649;48.798;9.798;2023-08-20T00:49:54;8.13;;;6.40;;
7215;SDS011;3649;48.798;9.798;2023-08-20T00:52:22;8.17;;;7.37;;
7215;SDS011;3649;48.798;9.798;2023-08-20T00:54:49;11.47;;;7.77;;
7215;SDS011;3649;48.798;9.798;2023-08-20T00:57:17;7.33;;;6.63;;
7215;SDS011;3649;48.798;9.798;2023-08-20T00:59:47;10.50;;;7.20;;
7215;SDS011;3649;48.798;9.798;2023-08-20T01:02:17;7.60;;;6.83;;
7215;SDS011;3649;48.798;9.798;2023-08-20T01:04:45;8.50;;;7.60;;
7215;SDS011;3649;48.798;9.798;2023-08-20T01:07:48;11.17;;;7.13;;
7215;SDS011;3649;48.798;9.798;2023-08-20T01:12:57;6.90;;;6.20;;
7215;SDS011;3649;48.798;9.798;2023-08-20T01:15:24;7.50;;;6.80;;
7215;SDS011;3649;48.798;9.798;2023-08-20T01:17:52;7.80;;;6.33;;
7215;SDS011;3649;48.798;9.798;2023-08-20T01:20:18;10.20;;;7.13;;
7215;SDS011;3649;48.798;9.798;2023-08-20T01:28:30;8.03;;;7.00;;
7215;SDS011;3649;48.798;9.798;2023-08-20T01:30:58;8.00;;;7.30;;
7215;SDS011;3649;48.798;9.798;2023-08-20T01:33:26;11.40;;;7.43;;
7215;SDS011;3649;48.798;9.798;2023-08-20T01:35:54;14.17;;;7.30;;
7215;SDS011;3649;48.798;9.798;2023-08-20T01:38:21;10.70;;;7.10;;
7215;SDS011;3649;48.798;9.798;2023-08-20T01:40:48;8.13;;;7.13;;
7215;SDS011;3649;48.798;9.798;2023-08-20T01:43:16;8.70;;;7.50;;
7215;SDS011;3649;48.798;9.798;2023-08-20T01:45:43;11.07;;;7.13;;
7215;SDS011;3649;48.798;9.798;2023-08-20T01:48:10;9.93;;;7.23;;
7215;SDS011;3649;48.798;9.798;2023-08-20T01:50:37;7.73;;;6.50;;
7215;SDS011;3649;48.798;9.798;2023-08-20T01:53:04;10.93;;;7.27;;
7215;SDS011;3649;48.798;9.798;2023-08-20T01:55:30;10.00;;;7.70;;
7215;SDS011;3649;48.798;9.798;2023-08-20T01:57:58;12.47;;;7.67;;
7215;SDS011;3649;48.798;9.798;2023-08-20T02:00:25;10.63;;;7.60;;
7215;SDS011;3649;48.798;9.798;2023-08-20T02:02:54;8.47;;;7.60;;
7215;SDS011;3649;48.798;9.798;2023-08-20T02:05:20;8.43;;;7.67;;
7215;SDS011;3649;48.798;9.798;2023-08-20T02:07:47;9.87;;;7.23;;
7215;SDS011;3649;48.798;9.798;2023-08-20T02:10:15;7.30;;;6.60;;
7215;SDS011;3649;48.798;9.798;2023-08-20T02:12:41;8.60;;;7.43;;
7215;SDS011;3649;48.798;9.798;2023-08-20T02:15:09;10.87;;;6.90;;
7215;SDS011;3649;48.798;9.798;2023-08-20T02:17:37;10.87;;;7.50;;
7215;SDS011;3649;48.798;9.798;2023-08-20T02:20:05;8.37;;;6.87;;
7215;SDS011;3649;48.798;9.798;2023-08-20T02:22:33;7.60;;;6.90;;
7215;SDS011;3649;48.798;9.798;2023-08-20T02:25:00;9.20;;;7.03;;
7215;SDS011;3649;48.798;9.798;2023-08-20T02:27:27;8.17;;;7.40;;
7215;SDS011;3649;48.798;9.798;2023-08-20T02:29:54;11.43;;;8.47;;
7215;SDS011;3649;48.798;9.798;2023-08-20T02:32:21;10.37;;;8.03;;
7215;SDS011;3649;48.798;9.798;2023-08-20T02:34:49;8.87;;;7.97;;
7215;SDS011;3649;48.798;9.798;2023-08-20T02:37:17;13.27;;;8.70;;
7215;SDS011;3649;48.798;9.798;2023-08-20T02:39:44;9.83;;;7.27;;
7215;SDS011;3649;48.798;9.798;2023-08-20T02:42:10;9.03;;;7.53;;
7215;SDS011;3649;48.798;9.798;2023-08-20T02:44:37;14.23;;;8.27;;
7215;SDS011;3649;48.798;9.798;2023-08-20T02:47:04;8.13;;;7.33;;
7215;SDS011;3649;48.798;9.798;2023-08-20T02:49:31;9.80;;;7.57;;
7215;SDS011;3649;48.798;9.798;2023-08-20T02:51:58;11.77;;;7.33;;
7215;SDS011;3649;48.798;9.798;2023-08-20T02:54:25;11.10;;;7.70;;
7215;SDS011;3649;48.798;9.798;2023-08-20T02:56:52;8.10;;;6.97;;
7215;SDS011;3649;48.798;9.798;2023-08-20T02:59:19;11.00;;;7.50;;
7215;SDS011;3649;48.798;9.798;2023-08-20T03:01:46;9.53;;;7.83;;
7215;SDS011;3649;48.798;9.798;2023-08-20T03:04:13;11.47;;;7.73;;
7215;SDS011;3649;48.798;9.798;2023-08-20T03:06:40;10.67;;;7.77;;
7215;SDS011;3649;48.798;9.798;2023-08-20T03:09:07;8.33;;;7.03;;
7215;SDS011;3649;48.798;9.798;2023-08-20T03:11:34;10.60;;;7.70;;
7215;SDS011;3649;48.798;9.798;2023-08-20T03:14:01;9.47;;;7.80;;
7215;SDS011;3649;48.798;9.798;2023-08-20T03:16:28;9.67;;;7.77;;
7215;SDS011;3649;48.798;9.798;2023-08-20T03:18:55;8.67;;;7.30;;
7215;SDS011;3649;48.798;9.798;2023-08-20T03:21:22;8.97;;;7.43;;
7215;SDS011;3649;48.798;9.798;2023-08-20T03:23:49;7.43;;;6.73;;
7215;SDS011;3649;48.798;9.798;2023-08-20T03:26:16;7.93;;;7.17;;
7215;SDS011;3649;48.798;9.798;2023-08-20T03:28:43;7.93;;;7.13;;
7215;SDS011;3649;48.798;9.798;2023-08-20T03:31:10;11.37;;;7.80;;
7215;SDS011;3649;48.798;9.798;2023-08-20T03:33:36;8.13;;;7.33;;
7215;SDS011;3649;48.798;9.798;2023-08-20T03:36:03;9.43;;;8.17;;
7215;SDS011;3649;48.798;9.798;2023-08-20T03:38:30;9.10;;;8.20;;
7215;SDS011;3649;48.798;9.798;2023-08-20T03:40:57;8.67;;;7.67;;
7215;SDS011;3649;48.798;9.798;2023-08-20T03:43:24;12.13;;;8.00;;
7215;SDS011;3649;48.798;9.798;2023-08-20T03:45:51;10.10;;;8.20;;
7215;SDS011;3649;48.798;9.798;2023-08-20T03:48:19;9.07;;;7.53;;
7215;SDS011;3649;48.798;9.798;2023-08-20T03:50:47;9.27;;;7.90;;
7215;SDS011;3649;48.798;9.798;2023-08-20T03:53:14;8.80;;;7.10;;
7215;SDS011;3649;48.798;9.798;2023-08-20T03:55:41;11.00;;;7.17;;
7215;SDS011;3649;48.798;9.798;2023-08-20T03:58:13;9.57;;;7.80;;
7215;SDS011;3649;48.798;9.798;2023-08-20T04:00:40;11.47;;;8.00;;
7215;SDS011;3649;48.798;9.798;2023-08-20T04:03:06;9.20;;;7.90;;
7215;SDS011;3649;48.798;9.798;2023-08-20T04:05:37;8.80;;;7.73;;
7215;SDS011;3649;48.798;9.798;2023-08-20T04:08:04;16.67;;;6.90;;
7215;SDS011;3649;48.798;9.798;2023-08-20T04:10:32;7.20;;;6.60;;
7215;SDS011;3649;48.798;9.798;2023-08-20T04:12:59;11.30;;;7.50;;
7215;SDS011;3649;48.798;9.798;2023-08-20T04:15:26;9.53;;;7.73;;
7215;SDS011;3649;48.798;9.798;2023-08-20T04:17:53;10.57;;;8.10;;
7215;SDS011;3649;48.798;9.798;2023-08-20T04:20:20;9.23;;;6.60;;
7215;SDS011;3649;48.798;9.798;2023-08-20T04:22:47;9.63;;;7.07;;
7215;SDS011;3649;48.798;9.798;2023-08-20T04:25:15;7.57;;;6.87;;
7215;SDS011;3649;48.798;9.798;2023-08-20T04:27:42;11.03;;;7.50;;
7215;SDS011;3649;48.798;9.798;2023-08-20T04:30:09;9.93;;;7.60;;
7215;SDS011;3649;48.798;9.798;2023-08-20T04:32:36;8.37;;;7.67;;
7215;SDS011;3649;48.798;9.798;2023-08-20T04:35:03;11.00;;;8.17;;
7215;SDS011;3649;48.798;9.798;2023-08-20T04:37:31;9.13;;;7.57;;
7215;SDS011;3649;48.798;9.798;2023-08-20T04:39:58;8.43;;;7.37;;
7215;SDS011;3649;48.798;9.798;2023-08-20T04:42:25;7.73;;;7.03;;
7215;SDS011;3649;48.798;9.798;2023-08-20T04:44:52;10.27;;;7.30;;
7215;SDS011;3649;48.798;9.798;2023-08-20T04:47:19;9.07;;;7.53;;
7215;SDS011;3649;48.798;9.798;2023-08-20T04:49:45;10.80;;;7.00;;
7215;SDS011;3649;48.798;9.798;2023-08-20T04:52:12;8.77;;;7.90;;
7215;SDS011;3649;48.798;9.798;2023-08-20T04:54:39;12.13;;;8.50;;
7215;SDS011;3649;48.798;9.798;2023-08-20T04:57:06;9.43;;;7.83;;
7215;SDS011;3649;48.798;9.798;2023-08-20T04:59:33;10.70;;;8.10;;
7215;SDS011;3649;48.798;9.798;2023-08-20T05:01:59;8.40;;;7.40;;
7215;SDS011;3649;48.798;9.798;2023-08-20T05:04:26;9.07;;;7.97;;
7215;SDS011;3649;48.798;9.798;2023-08-20T05:06:53;12.73;;;7.90;;
7215;SDS011;3649;48.798;9.798;2023-08-20T05:09:21;9.03;;;7.83;;
7215;SDS011;3649;48.798;9.798;2023-08-20T05:11:48;9.10;;;8.17;;
7215;SDS011;3649;48.798;9.798;2023-08-20T05:14:15;9.47;;;8.20;;
7215;SDS011;3649;48.798;9.798;2023-08-20T05:16:42;11.10;;;8.23;;
7215;SDS011;3649;48.798;9.798;2023-08-20T05:19:09;9.63;;;7.43;;
7215;SDS011;3649;48.798;9.798;2023-08-20T05:21:35;10.10;;;8.17;;
7215;SDS011;3649;48.798;9.798;2023-08-20T05:24:02;9.00;;;8.00;;
7215;SDS011;3649;48.798;9.798;2023-08-20T05:26:30;13.10;;;8.23;;
7215;SDS011;3649;48.798;9.798;2023-08-20T05:28:56;8.30;;;7.50;;
7215;SDS011;3649;48.798;9.798;2023-08-20T05:31:23;9.23;;;7.47;;
7215;SDS011;3649;48.798;9.798;2023-08-20T05:33:50;12.30;;;8.10;;
7215;SDS011;3649;48.798;9.798;2023-08-20T05:36:17;8.90;;;8.10;;
7215;SDS011;3649;48.798;9.798;2023-08-20T05:38:44;9.20;;;7.90;;
7215;SDS011;3649;48.798;9.798;2023-08-20T05:41:11;8.97;;;8.07;;
7215;SDS011;3649;48.798;9.798;2023-08-20T05:43:38;8.67;;;7.87;;
7215;SDS011;3649;48.798;9.798;2023-08-20T05:46:05;8.97;;;7.43;;
7215;SDS011;3649;48.798;9.798;2023-08-20T05:48:32;8.80;;;7.90;;
7215;SDS011;3649;48.798;9.798;2023-08-20T05:50:59;9.20;;;8.33;;
7215;SDS011;3649;48.798;9.798;2023-08-20T05:53:26;12.00;;;8.80;;
7215;SDS011;3649;48.798;9.798;2023-08-20T05:55:54;8.63;;;7.80;;
7215;SDS011;3649;48.798;9.798;2023-08-20T05:58:21;10.47;;;9.03;;
7215;SDS011;3649;48.798;9.798;2023-08-20T06:00:48;11.00;;;9.17;;
7215;SDS011;3649;48.798;9.798;2023-08-20T06:03:14;12.63;;;8.13;;
7215;SDS011;3649;48.798;9.798;2023-08-20T06:05:41;10.07;;;8.63;;
7215;SDS011;3649;48.798;9.798;2023-08-20T06:08:08;8.53;;;7.67;;
7215;SDS011;3649;48.798;9.798;2023-08-20T06:10:35;8.87;;;7.97;;
7215;SDS011;3649;48.798;9.798;2023-08-20T06:13:02;11.20;;;8.47;;
7215;SDS011;3649;48.798;9.798;2023-08-20T06:15:30;10.23;;;9.07;;
7215;SDS011;3649;48.798;9.798;2023-08-20T06:17:56;9.30;;;8.43;;
7215;SDS011;3649;48.798;9.798;2023-08-20T06:20:23;11.13;;;8.53;;
7215;SDS011;3649;48.798;9.798;2023-08-20T06:22:50;8.80;;;7.87;;
7215;SDS011;3649;48.798;9.798;2023-08-20T06:25:17;10.87;;;8.23;;
7215;SDS011;3649;48.798;9.798;2023-08-20T06:27:44;10.23;;;8.67;;
7215;SDS011;3649;48.798;9.798;2023-08-20T06:30:11;11.23;;;8.33;;
7215;SDS011;3649;48.798;9.798;2023-08-20T06:32:39;9.67;;;8.03;;
7215;SDS011;3649;48.798;9.798;2023-08-20T06:35:06;10.10;;;8.97;;
7215;SDS011;3649;48.798;9.798;2023-08-20T06:37:35;11.97;;;9.07;;
7215;SDS011;3649;48.798;9.798;2023-08-20T06:40:03;15.13;;;8.80;;
7215;SDS011;3649;48.798;9.798;2023-08-20T06:42:30;11.40;;;8.77;;
7215;SDS011;3649;48.798;9.798;2023-08-20T06:44:57;11.40;;;9.13;;
7215;SDS011;3649;48.798;9.798;2023-08-20T06:47:23;12.33;;;9.43;;
7215;SDS011;3649;48.798;9.798;2023-08-20T06:49:50;10.03;;;8.73;;
7215;SDS011;3649;48.798;9.798;2023-08-20T06:52:17;9.17;;;8.10;;
7215;SDS011;3649;48.798;9.798;2023-08-20T06:54:44;9.83;;;8.87;;
7215;SDS011;3649;48.798;9.798;2023-08-20T06:57:11;11.10;;;8.87;;
7215;SDS011;3649;48.798;9.798;2023-08-20T06:59:38;10.90;;;9.90;;
7215;SDS011;3649;48.798;9.798;2023-08-20T07:02:05;10.03;;;9.03;;
7215;SDS011;3649;48.798;9.798;2023-08-20T07:04:32;9.93;;;9.03;;
7215;SDS011;3649;48.798;9.798;2023-08-20T07:06:59;12.17;;;9.67;;
7215;SDS011;3649;48.798;9.798;2023-08-20T07:09:26;11.00;;;9.87;;
7215;SDS011;3649;48.798;9.798;2023-08-20T07:11:53;13.47;;;9.50;;
7215;SDS011;3649;48.798;9.798;2023-08-20T07:14:20;9.40;;;8.33;;
7215;SDS011;3649;48.798;9.798;2023-08-20T07:16:47;9.73;;;8.83;;
7215;SDS011;3649;48.798;9.798;2023-08-20T07:19:13;10.43;;;8.33;;
7215;SDS011;3649;48.798;9.798;2023-08-20T07:21:40;9.10;;;8.10;;
7215;SDS011;3649;48.798;9.798;2023-08-20T07:24:07;10.10;;;8.73;;
7215;SDS011;3649;48.798;9.798;2023-08-20T07:26:34;9.30;;;8.43;;
7215;SDS011;3649;48.798;9.798;2023-08-20T07:29:01;9.10;;;7.73;;
7215;SDS011;3649;48.798;9.798;2023-08-20T07:31:29;9.93;;;8.80;;
7215;SDS011;3649;48.798;9.798;2023-08-20T07:33:58;8.80;;;7.93;;
7215;SDS011;3649;48.798;9.798;2023-08-20T07:36:29;10.00;;;8.83;;
7215;SDS011;3649;48.798;9.798;2023-08-20T07:38:56;10.17;;;9.13;;
7215;SDS011;3649;48.798;9.798;2023-08-20T07:41:23;10.73;;;8.53;;
7215;SDS011;3649;48.798;9.798;2023-08-20T07:43:50;14.70;;;9.30;;
7215;SDS011;3649;48.798;9.798;2023-08-20T07:46:17;9.73;;;8.37;;
7215;SDS011;3649;48.798;9.798;2023-08-20T07:48:44;13.63;;;9.63;;
7215;SDS011;3649;48.798;9.798;2023-08-20T07:51:11;11.97;;;8.73;;
7215;SDS011;3649;48.798;9.798;2023-08-20T07:53:38;10.93;;;9.43;;
7215;SDS011;3649;48.798;9.798;2023-08-20T07:56:05;10.27;;;9.20;;
7215;SDS011;3649;48.798;9.798;2023-08-20T07:58:32;11.03;;;9.07;;
7215;SDS011;3649;48.798;9.798;2023-08-20T08:00:59;13.10;;;9.30;;
7215;SDS011;3649;48.798;9.798;2023-08-20T08:03:26;10.10;;;8.97;;
7215;SDS011;3649;48.798;9.798;2023-08-20T08:05:53;9.73;;;8.73;;
7215;SDS011;3649;48.798;9.798;2023-08-20T08:08:22;10.93;;;8.57;;
7215;SDS011;3649;48.798;9.798;2023-08-20T08:10:49;10.63;;;8.60;;
7215;SDS011;3649;48.798;9.798;2023-08-20T08:13:18;9.27;;;7.90;;
7215;SDS011;3649;48.798;9.798;2023-08-20T08:15:46;10.40;;;8.37;;
7215;SDS011;3649;48.798;9.798;2023-08-20T08:18:14;11.50;;;8.30;;
7215;SDS011;3649;48.798;9.798;2023-08-20T08:20:41;11.30;;;8.33;;
7215;SDS011;3649;48.798;9.798;2023-08-20T08:23:08;9.57;;;8.60;;
7215;SDS011;3649;48.798;9.798;2023-08-20T08:25:35;9.43;;;8.47;;
7215;SDS011;3649;48.798;9.798;2023-08-20T08:28:02;10.57;;;8.33;;
7215;SDS011;3649;48.798;9.798;2023-08-20T08:30:29;12.93;;;9.03;;
7215;SDS011;3649;48.798;9.798;2023-08-20T08:32:56;9.77;;;8.37;;
7215;SDS011;3649;48.798;9.798;2023-08-20T08:35:25;8.87;;;8.03;;
7215;SDS011;3649;48.798;9.798;2023-08-20T08:37:52;9.17;;;8.27;;
7215;SDS011;3649;48.798;9.798;2023-08-20T08:40:19;9.57;;;8.37;;
7215;SDS011;3649;48.798;9.798;2023-08-20T08:42:47;9.03;;;8.13;;
7215;SDS011;3649;48.798;9.798;2023-08-20T08:45:17;11.67;;;8.63;;
7215;SDS011;3649;48.798;9.798;2023-08-20T08:47:46;12.67;;;8.00;;
7215;SDS011;3649;48.798;9.798;2023-08-20T08:50:14;9.90;;;7.43;;
7215;SDS011;3649;48.798;9.798;2023-08-20T08:52:41;8.87;;;7.57;;
7215;SDS011;3649;48.798;9.798;2023-08-20T08:55:08;10.13;;;8.23;;
7215;SDS011;3649;48.798;9.798;2023-08-20T08:57:36;10.13;;;7.57;;
7215;SDS011;3649;48.798;9.798;2023-08-20T09:00:03;11.83;;;7.20;;
7215;SDS011;3649;48.798;9.798;2023-08-20T09:02:31;9.20;;;7.77;;
7215;SDS011;3649;48.798;9.798;2023-08-20T09:04:58;11.07;;;7.90;;
7215;SDS011;3649;48.798;9.798;2023-08-20T09:07:25;9.87;;;8.03;;
7215;SDS011;3649;48.798;9.798;2023-08-20T09:09:56;9.53;;;8.07;;
7215;SDS011;3649;48.798;9.798;2023-08-20T09:12:25;11.53;;;7.77;;
7215;SDS011;3649;48.798;9.798;2023-08-20T09:14:53;9.80;;;7.70;;
7215;SDS011;3649;48.798;9.798;2023-08-20T09:17:28;10.03;;;7.63;;
7215;SDS011;3649;48.798;9.798;2023-08-20T09:19:55;10.77;;;8.33;;
7215;SDS011;3649;48.798;9.798;2023-08-20T09:22:26;12.83;;;7.47;;
7215;SDS011;3649;48.798;9.798;2023-08-20T09:24:54;10.53;;;7.97;;
7215;SDS011;3649;48.798;9.798;2023-08-20T09:27:22;12.80;;;7.60;;
7215;SDS011;3649;48.798;9.798;2023-08-20T09:29:50;8.23;;;7.43;;
7215;SDS011;3649;48.798;9.798;2023-08-20T09:32:22;8.40;;;7.60;;
7215;SDS011;3649;48.798;9.798;2023-08-20T09:34:50;11.70;;;7.93;;
7215;SDS011;3649;48.798;9.798;2023-08-20T09:37:19;8.87;;;7.53;;
7215;SDS011;3649;48.798;9.798;2023-08-20T09:39:47;8.60;;;7.30;;
7215;SDS011;3649;48.798;9.798;2023-08-20T09:42:14;9.10;;;7.83;;
7215;SDS011;3649;48.798;9.798;2023-08-20T09:44:45;8.30;;;7.40;;
7215;SDS011;3649;48.798;9.798;2023-08-20T09:47:16;8.83;;;7.77;;
7215;SDS011;3649;48.798;9.798;2023-08-20T09:49:45;8.23;;;7.43;;
7215;SDS011;3649;48.798;9.798;2023-08-20T09:52:16;13.03;;;7.90;;
7215;SDS011;3649;48.798;9.798;2023-08-20T09:57:40;8.30;;;7.47;;
7215;SDS011;3649;48.798;9.798;2023-08-20T10:00:12;9.10;;;7.63;;
7215;SDS011;3649;48.798;9.798;2023-08-20T10:02:40;10.97;;;7.30;;
7215;SDS011;3649;48.798;9.798;2023-08-20T10:05:09;8.23;;;7.20;;
7215;SDS011;3649;48.798;9.798;2023-08-20T10:07:37;8.73;;;6.80;;
7215;SDS011;3649;48.798;9.798;2023-08-20T10:10:07;11.30;;;7.10;;
7215;SDS011;3649;48.798;9.798;2023-08-20T10:12:37;7.97;;;7.27;;
7215;SDS011;3649;48.798;9.798;2023-08-20T10:15:08;10.63;;;7.43;;
7215;SDS011;3649;48.798;9.798;2023-08-20T10:17:36;8.93;;;7.13;;
7215;SDS011;3649;48.798;9.798;2023-08-20T10:20:05;7.70;;;6.97;;
7215;SDS011;3649;48.798;9.798;2023-08-20T10:22:38;8.07;;;7.10;;
7215;SDS011;3649;48.798;9.798;2023-08-20T10:25:10;11.47;;;7.90;;
7215;SDS011;3649;48.798;9.798;2023-08-20T10:27:39;9.13;;;7.83;;
7215;SDS011;3649;48.798;9.798;2023-08-20T10:30:09;8.07;;;7.20;;
7215;SDS011;3649;48.798;9.798;2023-08-20T10:32:55;8.83;;;7.77;;
7215;SDS011;3649;48.798;9.798;2023-08-20T10:35:28;8.97;;;7.00;;
7215;SDS011;3649;48.798;9.798;2023-08-20T10:38:14;12.90;;;7.40;;
7215;SDS011;3649;48.798;9.798;2023-08-20T10:40:52;8.57;;;6.87;;
7215;SDS011;3649;48.798;9.798;2023-08-20T10:43:27;7.53;;;6.80;;
7215;SDS011;3649;48.798;9.798;2023-08-20T10:46:17;10.20;;;7.43;;
7215;SDS011;3649;48.798;9.798;2023-08-20T10:48:52;8.20;;;6.60;;
7215;SDS011;3649;48.798;9.798;2023-08-20T10:51:25;10.67;;;7.03;;
7215;SDS011;3649;48.798;9.798;2023-08-20T10:59:21;11.40;;;6.70;;
7215;SDS011;3649;48.798;9.798;2023-08-20T11:01:49;8.57;;;6.70;;
7215;SDS011;3649;48.798;9.798;2023-08-20T11:04:17;8.90;;;6.90;;
7215;SDS011;3649;48.798;9.798;2023-08-20T11:06:47;7.83;;;6.83;;
7215;SDS011;3649;48.798;9.798;2023-08-20T11:09:16;6.90;;;6.07;;
7215;SDS011;3649;48.798;9.798;2023-08-20T11:11:44;7.60;;;6.90;;
7215;SDS011;3649;48.798;9.798;2023-08-20T11:14:14;9.27;;;6.60;;
7215;SDS011;3649;48.798;9.798;2023-08-20T11:16:42;7.90;;;6.07;;
7215;SDS011;3649;48.798;9.798;2023-08-20T11:19:12;7.77;;;6.33;;
7215;SDS011;3649;48.798;9.798;2023-08-20T11:21:40;8.27;;;6.63;;
7215;SDS011;3649;48.798;9.798;2023-08-20T11:24:09;8.33;;;6.10;;
7215;SDS011;3649;48.798;9.798;2023-08-20T11:26:40;9.17;;;6.83;;
7215;SDS011;3649;48.798;9.798;2023-08-20T11:29:09;10.23;;;6.60;;
7215;SDS011;3649;48.798;9.798;2023-08-20T11:31:38;8.67;;;5.97;;
7215;SDS011;3649;48.798;9.798;2023-08-20T11:34:06;11.50;;;5.97;;
7215;SDS011;3649;48.798;9.798;2023-08-20T11:36:34;6.90;;;6.20;;
7215;SDS011;3649;48.798;9.798;2023-08-20T11:39:01;10.90;;;6.80;;
7215;SDS011;3649;48.798;9.798;2023-08-20T11:41:29;6.67;;;6.00;;
7215;SDS011;3649;48.798;9.798;2023-08-20T11:43:56;9.83;;;6.77;;
7215;SDS011;3649;48.798;9.798;2023-08-20T11:46:23;10.10;;;6.47;;
7215;SDS011;3649;48.798;9.798;2023-08-20T11:49:07;6.87;;;5.70;;
7215;SDS011;3649;48.798;9.798;2023-08-20T11:51:43;6.43;;;5.83;;
7215;SDS011;3649;48.798;9.798;2023-08-20T11:54:14;7.30;;;6.00;;
7215;SDS011;3649;48.798;9.798;2023-08-20T11:56:45;12.23;;;6.03;;
7215;SDS011;3649;48.798;9.798;2023-08-20T11:59:16;12.33;;;6.10;;
7215;SDS011;3649;48.798;9.798;2023-08-20T12:02:02;8.63;;;5.73;;
7215;SDS011;3649;48.798;9.798;2023-08-20T12:04:30;9.00;;;6.10;;
7215;SDS011;3649;48.798;9.798;2023-08-20T12:07:13;7.10;;;5.97;;
7215;SDS011;3649;48.798;9.798;2023-08-20T12:09:40;8.23;;;5.27;;
7215;SDS011;3649;48.798;9.798;2023-08-20T12:12:09;8.33;;;5.67;;
7215;SDS011;3649;48.798;9.798;2023-08-20T12:14:36;10.87;;;5.60;;
7215;SDS011;3649;48.798;9.798;2023-08-20T12:17:03;7.73;;;5.90;;
7215;SDS011;3649;48.798;9.798;2023-08-20T12:19:30;8.17;;;5.30;;
7215;SDS011;3649;48.798;9.798;2023-08-20T12:21:57;6.80;;;6.13;;
7215;SDS011;3649;48.798;9.798;2023-08-20T12:24:24;8.97;;;5.50;;
7215;SDS011;3649;48.798;9.798;2023-08-20T12:26:52;10.63;;;4.90;;
7215;SDS011;3649;48.798;9.798;2023-08-20T12:29:19;8.30;;;5.17;;
7215;SDS011;3649;48.798;9.798;2023-08-20T12:31:46;10.20;;;5.17;;
7215;SDS011;3649;48.798;9.798;2023-08-20T12:34:13;6.63;;;5.70;;
7215;SDS011;3649;48.798;9.798;2023-08-20T12:36:40;9.30;;;5.00;;
7215;SDS011;3649;48.798;9.798;2023-08-20T12:39:07;8.90;;;5.20;;
7215;SDS011;3649;48.798;9.798;2023-08-20T12:41:34;7.50;;;5.13;;
7215;SDS011;3649;48.798;9.798;2023-08-20T12:44:04;8.67;;;5.23;;
7215;SDS011;3649;48.798;9.798;2023-08-20T12:46:32;5.27;;;4.83;;
7215;SDS011;3649;48.798;9.798;2023-08-20T12:49:01;6.27;;;5.03;;
7215;SDS011;3649;48.798;9.798;2023-08-20T12:51:28;10.77;;;5.83;;
7215;SDS011;3649;48.798;9.798;2023-08-20T12:53:55;6.20;;;5.20;;
7215;SDS011;3649;48.798;9.798;2023-08-20T12:56:21;7.97;;;5.07;;
7215;SDS011;3649;48.798;9.798;2023-08-20T12:58:49;8.50;;;4.90;;
7215;SDS011;3649;48.798;9.798;2023-08-20T13:01:15;5.60;;;4.77;;
7215;SDS011;3649;48.798;9.798;2023-08-20T13:03:44;7.10;;;4.90;;
7215;SDS011;3649;48.798;9.798;2023-08-20T13:06:12;8.37;;;5.03;;
7215;SDS011;3649;48.798;9.798;2023-08-20T13:08:39;9.63;;;5.07;;
7215;SDS011;3649;48.798;9.798;2023-08-20T13:11:08;8.30;;;5.17;;
7215;SDS011;3649;48.798;9.798;2023-08-20T13:13:40;9.53;;;5.27;;
7215;SDS011;3649;48.798;9.798;2023-08-20T13:16:07;8.33;;;5.40;;
7215;SDS011;3649;48.798;9.798;2023-08-20T13:18:34;8.80;;;5.17;;
7215;SDS011;3649;48.798;9.798;2023-08-20T13:21:02;9.70;;;5.63;;
7215;SDS011;3649;48.798;9.798;2023-08-20T13:23:30;12.97;;;5.07;;
7215;SDS011;3649;48.798;9.798;2023-08-20T13:25:57;9.53;;;5.07;;
7215;SDS011;3649;48.798;9.798;2023-08-20T13:28:24;8.00;;;5.40;;
7215;SDS011;3649;48.798;9.798;2023-08-20T13:30:50;7.37;;;5.00;;
7215;SDS011;3649;48.798;9.798;2023-08-20T13:33:17;8.57;;;5.10;;
7215;SDS011;3649;48.798;9.798;2023-08-20T13:35:44;9.17;;;6.07;;
7215;SDS011;3649;48.798;9.798;2023-08-20T13:38:12;7.07;;;5.77;;
7215;SDS011;3649;48.798;9.798;2023-08-20T13:40:39;9.33;;;5.53;;
7215;SDS011;3649;48.798;9.798;2023-08-20T13:43:06;5.83;;;4.60;;
7215;SDS011;3649;48.798;9.798;2023-08-20T13:45:32;10.77;;;5.43;;
7215;SDS011;3649;48.798;9.798;2023-08-20T13:47:59;8.13;;;5.20;;
7215;SDS011;3649;48.798;9.798;2023-08-20T13:50:26;9.10;;;5.07;;
7215;SDS011;3649;48.798;9.798;2023-08-20T13:52:53;5.83;;;5.33;;
7215;SDS011;3649;48.798;9.798;2023-08-20T13:55:21;8.93;;;5.83;;
7215;SDS011;3649;48.798;9.798;2023-08-20T13:57:48;8.43;;;5.37;;
7215;SDS011;3649;48.798;9.798;2023-08-20T14:00:15;6.23;;;5.20;;
7215;SDS011;3649;48.798;9.798;2023-08-20T14:02:42;7.20;;;5.00;;
7215;SDS011;3649;48.798;9.798;2023-08-20T14:05:09;5.97;;;4.83;;
7215;SDS011;3649;48.798;9.798;2023-08-20T14:07:36;7.13;;;4.97;;
7215;SDS011;3649;48.798;9.798;2023-08-20T14:10:03;6.63;;;5.20;;
7215;SDS011;3649;48.798;9.798;2023-08-20T14:12:31;8.33;;;5.60;;
7215;SDS011;3649;48.798;9.798;2023-08-20T14:14:58;5.63;;;5.13;;
7215;SDS011;3649;48.798;9.798;2023-08-20T14:17:25;8.70;;;5.13;;
7215;SDS011;3649;48.798;9.798;2023-08-20T14:19:52;5.40;;;4.90;;
7215;SDS011;3649;48.798;9.798;2023-08-20T14:22:19;6.07;;;5.10;;
7215;SDS011;3649;48.798;9.798;2023-08-20T14:24:46;10.63;;;5.60;;
7215;SDS011;3649;48.798;9.798;2023-08-20T14:27:13;7.23;;;5.53;;
7215;SDS011;3649;48.798;9.798;2023-08-20T14:29:40;5.73;;;4.97;;
7215;SDS011;3649;48.798;9.798;2023-08-20T14:32:08;5.43;;;4.70;;
7215;SDS011;3649;48.798;9.798;2023-08-20T14:34:35;6.47;;;4.77;;
7215;SDS011;3649;48.798;9.798;2023-08-20T14:37:02;7.43;;;5.40;;
7215;SDS011;3649;48.798;9.798;2023-08-20T14:39:29;10.40;;;5.67;;
7215;SDS011;3649;48.798;9.798;2023-08-20T14:41:58;7.00;;;5.30;;
7215;SDS011;3649;48.798;9.798;2023-08-20T14:44:25;9.33;;;5.37;;
7215;SDS011;3649;48.798;9.798;2023-08-20T14:46:52;6.50;;;5.13;;
7215;SDS011;3649;48.798;9.798;2023-08-20T14:49:19;6.73;;;4.83;;
7215;SDS011;3649;48.798;9.798;2023-08-20T14:51:45;12.50;;;5.03;;
7215;SDS011;3649;48.798;9.798;2023-08-20T14:54:13;10.57;;;5.20;;
7215;SDS011;3649;48.798;9.798;2023-08-20T14:56:40;6.83;;;5.33;;
7215;SDS011;3649;48.798;9.798;2023-08-20T14:59:08;7.83;;;5.07;;
7215;SDS011;3649;48.798;9.798;2023-08-20T15:01:36;7.43;;;5.37;;
7215;SDS011;3649;48.798;9.798;2023-08-20T15:04:03;8.17;;;5.33;;
7215;SDS011;3649;48.798;9.798;2023-08-20T15:06:30;10.40;;;6.00;;
7215;SDS011;3649;48.798;9.798;2023-08-20T15:08:57;10.40;;;6.60;;
7215;SDS011;3649;48.798;9.798;2023-08-20T15:11:24;11.50;;;6.43;;
7215;SDS011;3649;48.798;9.798;2023-08-20T15:13:51;9.63;;;6.27;;
7215;SDS011;3649;48.798;9.798;2023-08-20T15:16:18;11.13;;;6.13;;
7215;SDS011;3649;48.798;9.798;2023-08-20T15:18:45;8.63;;;5.40;;
7215;SDS011;3649;48.798;9.798;2023-08-20T15:21:12;10.73;;;5.50;;
7215;SDS011;3649;48.798;9.798;2023-08-20T15:23:39;10.23;;;5.90;;
7215;SDS011;3649;48.798;9.798;2023-08-20T15:26:06;7.90;;;5.43;;
7215;SDS011;3649;48.798;9.798;2023-08-20T15:28:33;5.80;;;4.70;;
7215;SDS011;3649;48.798;9.798;2023-08-20T15:31:00;7.80;;;5.10;;